CCA4580 ZUCK-ZHHH
Flight info
| Callsign | CCA4580 |
|---|---|
| Flight time | N/A |
| Altitude | 37100 |
| Route | GUTVI3Z GUTVI B213 WTM WTM2T |
| Aircraft | A346/H-SDE2E3FGHIJ3J4J5M1RWXY/LB1D1 |
Departure
| Time | 2026-04-30 22:33 |
|---|---|
| Airport | Chongqing Jiangbei International Airport (ZUCK) |
Arrival
| Time | N/A |
|---|---|
| Airport | Wuhan Tianhe International Airport (ZHHH) |
| Time | Latitude | Longitude | Altitude | Speed | Heading |
|---|---|---|---|---|---|
| 2026-04-30 22:17 | 29.73239 | 106.66108 | 1379 ft | 0 kts | 343° |
| 2026-04-30 22:22 | 29.73238 | 106.66108 | 1379 ft | 1 kts | 343° |
| 2026-04-30 22:22 | 29.73223 | 106.66113 | 1379 ft | 2 kts | 343° |
| 2026-04-30 22:22 | 29.73209 | 106.66118 | 1379 ft | 2 kts | 343° |
| 2026-04-30 22:22 | 29.73194 | 106.66122 | 1379 ft | 2 kts | 350° |
| 2026-04-30 22:23 | 29.73179 | 106.66124 | 1379 ft | 2 kts | 4° |
| 2026-04-30 22:23 | 29.73164 | 106.66122 | 1379 ft | 2 kts | 15° |
| 2026-04-30 22:23 | 29.73149 | 106.66116 | 1379 ft | 2 kts | 25° |
| 2026-04-30 22:23 | 29.73136 | 106.66107 | 1379 ft | 2 kts | 36° |
| 2026-04-30 22:24 | 29.73126 | 106.66097 | 1379 ft | 0 kts | 46° |
| 2026-04-30 22:24 | 29.73123 | 106.66094 | 1379 ft | 0 kts | 48° |
| 2026-04-30 22:26 | 29.73125 | 106.66097 | 1379 ft | 1 kts | 49° |
| 2026-04-30 22:27 | 29.73138 | 106.66117 | 1379 ft | 4 kts | 56° |
| 2026-04-30 22:27 | 29.73158 | 106.66163 | 1379 ft | 7 kts | 68° |
| 2026-04-30 22:27 | 29.73183 | 106.66293 | 1379 ft | 8 kts | 107° |
| 2026-04-30 22:28 | 29.73136 | 106.66445 | 1379 ft | 12 kts | 94° |
| 2026-04-30 22:28 | 29.73081 | 106.66513 | 1379 ft | 13 kts | 179° |
| 2026-04-30 22:29 | 29.72771 | 106.66405 | 1379 ft | 17 kts | 197° |
| 2026-04-30 22:29 | 29.72652 | 106.66363 | 1379 ft | 18 kts | 197° |
| 2026-04-30 22:30 | 29.72138 | 106.66185 | 1379 ft | 18 kts | 197° |
| 2026-04-30 22:31 | 29.71875 | 106.66095 | 1379 ft | 10 kts | 197° |
| 2026-04-30 22:32 | 29.71759 | 106.66207 | 1379 ft | 9 kts | 95° |
| 2026-04-30 22:32 | 29.71799 | 106.66267 | 1379 ft | 0 kts | 19° |
| 2026-04-30 22:33 | 29.72978 | 106.66682 | 1379 ft | 165 kts | 17° |
| 2026-04-30 22:33 | 29.75505 | 106.67541 | 2817 ft | 189 kts | 19° |
| 2026-04-30 22:34 | 29.78848 | 106.69401 | 5427 ft | 195 kts | 39° |
| 2026-04-30 22:35 | 29.80740 | 106.71845 | 6691 ft | 227 kts | 77° |
| 2026-04-30 22:36 | 29.81695 | 106.79990 | 8723 ft | 286 kts | 84° |
| 2026-04-30 22:36 | 29.81947 | 106.82262 | 9519 ft | 290 kts | 84° |
| 2026-04-30 22:37 | 29.82762 | 106.89468 | 11144 ft | 326 kts | 84° |
| 2026-04-30 22:37 | 29.83063 | 106.92120 | 11563 ft | 342 kts | 84° |
| 2026-04-30 22:37 | 29.83711 | 106.97828 | 12385 ft | 377 kts | 84° |
| 2026-04-30 22:38 | 29.84406 | 107.03929 | 13910 ft | 388 kts | 84° |
| 2026-04-30 22:38 | 29.85114 | 107.10162 | 15434 ft | 398 kts | 84° |
| 2026-04-30 22:39 | 29.85471 | 107.13319 | 16158 ft | 402 kts | 84° |
| 2026-04-30 22:39 | 29.86567 | 107.23037 | 18233 ft | 417 kts | 84° |
| 2026-04-30 22:40 | 29.87695 | 107.33115 | 20176 ft | 430 kts | 84° |
| 2026-04-30 22:41 | 29.88849 | 107.43484 | 21990 ft | 444 kts | 84° |
| 2026-04-30 22:41 | 29.89639 | 107.50626 | 23136 ft | 452 kts | 84° |
| 2026-04-30 22:42 | 29.91246 | 107.65218 | 25281 ft | 469 kts | 84° |
| 2026-04-30 22:43 | 29.92068 | 107.72735 | 26284 ft | 476 kts | 84° |
| 2026-04-30 22:43 | 29.92978 | 107.80347 | 27230 ft | 484 kts | 81° |
| 2026-04-30 22:44 | 29.94509 | 107.87951 | 28168 ft | 491 kts | 74° |
| 2026-04-30 22:45 | 29.98398 | 108.03190 | 30122 ft | 499 kts | 73° |
| 2026-04-30 22:45 | 30.00333 | 108.10844 | 31348 ft | 496 kts | 73° |
| 2026-04-30 22:46 | 30.02243 | 108.18446 | 32418 ft | 495 kts | 73° |
| 2026-04-30 22:47 | 30.06049 | 108.33655 | 34423 ft | 491 kts | 73° |
| 2026-04-30 22:47 | 30.07924 | 108.41185 | 35338 ft | 490 kts | 73° |
| 2026-04-30 22:48 | 30.09792 | 108.48700 | 36044 ft | 491 kts | 73° |
| 2026-04-30 22:49 | 30.12775 | 108.60113 | 36874 ft | 496 kts | 70° |
| 2026-04-30 22:49 | 30.16102 | 108.71476 | 36940 ft | 499 kts | 71° |
| 2026-04-30 22:51 | 30.22665 | 108.94263 | 36943 ft | 499 kts | 73° |
| 2026-04-30 22:52 | 30.25515 | 109.05847 | 36944 ft | 497 kts | 73° |
| 2026-04-30 22:53 | 30.29252 | 109.21107 | 36943 ft | 493 kts | 73° |
| 2026-04-30 22:53 | 30.32078 | 109.32675 | 36946 ft | 507 kts | 73° |
| 2026-04-30 22:55 | 30.36913 | 109.52563 | 36944 ft | 517 kts | 73° |
| 2026-04-30 22:56 | 30.40092 | 109.68787 | 36942 ft | 518 kts | 80° |
| 2026-04-30 22:57 | 30.43077 | 109.89365 | 36942 ft | 518 kts | 80° |
| 2026-04-30 22:58 | 30.45464 | 110.05820 | 36943 ft | 518 kts | 80° |
| 2026-04-30 22:59 | 30.49001 | 110.30439 | 36974 ft | 518 kts | 80° |